createdAt,value
2018-11-14T00:01:10.016Z,102112.22
2018-11-14T00:03:39.697Z,102116.47
2018-11-14T00:06:09.032Z,102117.66
2018-11-14T00:08:42.683Z,102113.17
2018-11-14T00:11:15.953Z,102112.33
2018-11-14T00:13:46.282Z,102117.09
2018-11-14T00:16:15.453Z,102117.73
2018-11-14T00:18:47.179Z,102117.37
2018-11-14T00:21:16.733Z,102116.38
2018-11-14T00:23:45.246Z,102115.31
2018-11-14T00:26:13.762Z,102108.19
2018-11-14T00:28:42.651Z,102111.80
2018-11-14T00:31:16.699Z,102105.77
2018-11-14T00:33:49.243Z,102102.87
2018-11-14T00:37:00.245Z,102102.29
2018-11-14T00:39:30.300Z,102112.63
2018-11-14T00:42:03.370Z,102118.16
2018-11-14T00:44:34.576Z,102119.84
2018-11-14T00:47:05.501Z,102126.73
2018-11-14T00:49:38.516Z,102132.03
2018-11-14T00:52:08.786Z,102132.81
2018-11-14T00:54:42.507Z,102132.70
2018-11-14T00:57:13.056Z,102142.84
2018-11-14T00:59:41.856Z,102142.06
2018-11-14T01:02:15.419Z,102144.58
2018-11-14T01:04:45.415Z,102141.86
2018-11-14T01:07:14.961Z,102139.75
2018-11-14T01:09:44.886Z,102145.41
2018-11-14T01:12:14.227Z,102146.00
2018-11-14T01:14:43.760Z,102133.43
2018-11-14T01:17:11.996Z,102150.95
2018-11-14T01:19:40.145Z,102149.55
2018-11-14T01:22:08.270Z,102150.61
2018-11-14T01:24:36.372Z,102148.79
2018-11-14T01:27:04.476Z,102148.58
2018-11-14T01:29:32.559Z,102148.53
2018-11-14T01:32:00.723Z,102151.86
2018-11-14T01:34:28.807Z,102153.24
2018-11-14T01:36:56.895Z,102147.09
2018-11-14T01:39:24.959Z,102141.65
2018-11-14T01:41:53.043Z,102144.73
2018-11-14T01:44:21.128Z,102140.54
2018-11-14T01:46:49.244Z,102142.84
2018-11-14T01:49:17.350Z,102145.78
2018-11-14T01:51:45.424Z,102135.78
2018-11-14T01:54:13.506Z,102128.05
2018-11-14T01:56:41.580Z,102128.63
2018-11-14T01:59:09.668Z,102135.08
2018-11-14T02:01:37.768Z,102122.95
2018-11-14T02:04:05.847Z,102116.08
2018-11-14T02:06:33.947Z,102121.92
2018-11-14T02:09:02.053Z,102110.49
2018-11-14T02:11:30.173Z,102108.53
2018-11-14T02:13:58.243Z,102108.33
2018-11-14T02:16:26.328Z,102104.70
2018-11-14T02:18:54.451Z,102105.47
2018-11-14T02:21:22.531Z,102116.64
2018-11-14T02:23:50.640Z,102111.20
2018-11-14T02:26:18.724Z,102124.20
2018-11-14T02:28:46.796Z,102113.34
2018-11-14T02:31:14.889Z,102112.79
2018-11-14T02:33:43.189Z,102111.49
2018-11-14T02:36:11.275Z,102106.05
2018-11-14T02:38:39.379Z,102110.96
2018-11-14T02:41:07.459Z,102106.11
2018-11-14T02:43:35.540Z,102114.78
2018-11-14T02:46:03.651Z,102108.02
2018-11-14T02:48:31.707Z,102104.37
2018-11-14T02:51:16.041Z,102102.75
2018-11-14T02:53:44.232Z,102103.32
2018-11-14T02:56:12.372Z,102104.32
2018-11-14T02:58:40.455Z,102098.97
2018-11-14T03:01:08.803Z,102097.67
2018-11-14T03:03:36.901Z,102103.70
2018-11-14T03:06:05.204Z,102106.91
2018-11-14T03:08:33.600Z,102100.82
2018-11-14T03:11:01.721Z,102099.19
2018-11-14T03:13:29.804Z,102102.19
2018-11-14T03:15:57.891Z,102100.61
2018-11-14T03:18:25.983Z,102098.10
2018-11-14T03:20:54.091Z,102101.81
2018-11-14T03:23:22.192Z,102095.44
2018-11-14T03:25:50.505Z,102088.27
2018-11-14T03:28:18.635Z,102093.38
2018-11-14T03:30:46.725Z,102088.16
2018-11-14T03:33:14.824Z,102086.64
2018-11-14T03:35:48.229Z,102096.19
2018-11-14T03:38:16.316Z,102101.88
2018-11-14T03:40:44.404Z,102091.52
2018-11-14T03:43:12.508Z,102098.37
2018-11-14T03:45:40.584Z,102097.84
2018-11-14T03:48:08.685Z,102092.14
2018-11-14T03:50:36.757Z,102099.19
2018-11-14T03:53:05.196Z,102091.81
2018-11-14T03:55:33.309Z,102096.84
2018-11-14T03:58:01.558Z,102089.50
2018-11-14T04:00:29.595Z,102093.14
2018-11-14T04:02:57.707Z,102085.13
2018-11-14T04:05:25.907Z,102077.70
2018-11-14T04:07:54.839Z,102079.17
2018-11-14T04:10:23.103Z,102069.05
2018-11-14T04:12:51.179Z,102074.47
2018-11-14T04:15:19.281Z,102075.58
2018-11-14T04:17:47.376Z,102073.48
2018-11-14T04:20:16.624Z,102068.38
2018-11-14T04:22:45.154Z,102071.61
2018-11-14T04:25:15.059Z,102061.09
2018-11-14T04:27:44.075Z,102072.48
2018-11-14T04:30:14.273Z,102074.05
2018-11-14T04:32:43.000Z,102060.09
2018-11-14T04:35:12.488Z,102069.63
2018-11-14T04:37:40.584Z,102069.22
2018-11-14T04:40:10.785Z,102069.97
2018-11-14T04:42:39.131Z,102074.05
2018-11-14T04:45:09.776Z,102077.41
2018-11-14T04:47:37.875Z,102074.05
2018-11-14T04:50:07.896Z,102072.15
2018-11-14T04:52:36.636Z,102070.30
2018-11-14T04:55:05.257Z,102071.39
2018-11-14T04:57:33.348Z,102077.52
2018-11-14T05:00:01.472Z,102071.19
2018-11-14T05:02:29.602Z,102064.03
2018-11-14T05:04:57.675Z,102061.30
2018-11-14T05:07:25.740Z,102064.21
2018-11-14T05:09:53.837Z,102073.34
2018-11-14T05:12:21.915Z,102074.03
2018-11-14T05:14:50.015Z,102075.28
2018-11-14T05:17:18.101Z,102067.86
2018-11-14T05:19:46.227Z,102070.05
2018-11-14T05:22:14.969Z,102065.69
2018-11-14T05:24:43.221Z,102070.39
2018-11-14T05:27:11.200Z,102074.11
2018-11-14T05:29:39.555Z,102073.77
2018-11-14T05:32:07.666Z,102067.61
2018-11-14T05:34:35.820Z,102067.66
2018-11-14T05:37:03.919Z,102064.15
2018-11-14T05:39:32.015Z,102057.06
2018-11-14T05:42:00.092Z,102058.05
2018-11-14T05:44:28.180Z,102049.12
2018-11-14T05:46:56.704Z,102044.53
2018-11-14T05:49:24.815Z,102043.17
2018-11-14T05:51:52.895Z,102047.48
2018-11-14T05:54:20.967Z,102044.41
2018-11-14T05:56:49.115Z,102038.94
2018-11-14T05:59:17.275Z,102049.05
2018-11-14T06:01:46.011Z,102044.23
2018-11-14T06:04:14.334Z,102041.89
2018-11-14T06:06:42.427Z,102045.88
2018-11-14T06:09:12.317Z,102046.59
2018-11-14T06:11:40.415Z,102052.70
2018-11-14T06:14:08.563Z,102056.60
2018-11-14T06:16:36.755Z,102058.91
2018-11-14T06:19:04.953Z,102053.09
2018-11-14T06:21:33.399Z,102058.18
2018-11-14T06:24:01.493Z,102062.15
2018-11-14T06:26:29.611Z,102057.28
2018-11-14T06:28:57.705Z,102059.71
2018-11-14T06:31:25.814Z,102060.83
2018-11-14T06:33:53.891Z,102060.83
2018-11-14T06:36:22.021Z,102064.08
2018-11-14T06:38:50.088Z,102065.87
2018-11-14T06:41:18.237Z,102057.20
2018-11-14T06:43:46.351Z,102053.09
2018-11-14T06:46:14.525Z,102066.47
2018-11-14T06:48:42.651Z,102064.55
2018-11-14T06:51:10.760Z,102065.70
2018-11-14T06:53:38.842Z,102076.17
2018-11-14T06:56:07.001Z,102069.80
2018-11-14T06:58:35.187Z,102082.97
2018-11-14T07:01:03.391Z,102083.55
2018-11-14T07:03:31.593Z,102084.65
2018-11-14T07:05:59.727Z,102087.55
2018-11-14T07:08:27.747Z,102081.75
2018-11-14T07:10:55.867Z,102080.08
2018-11-14T07:13:23.959Z,102078.73
2018-11-14T07:15:52.094Z,102076.43
2018-11-14T07:18:20.191Z,102075.95
2018-11-14T07:20:48.354Z,102080.75
2018-11-14T07:23:16.442Z,102080.04
2018-11-14T07:25:44.552Z,102072.11
2018-11-14T07:28:12.673Z,102070.39
2018-11-14T07:30:40.759Z,102068.47
2018-11-14T07:33:09.991Z,102070.53
2018-11-14T07:35:38.108Z,102067.06
2018-11-14T07:38:41.034Z,102071.26
2018-11-14T07:41:10.884Z,102061.13
2018-11-14T07:43:39.483Z,102062.94
2018-11-14T07:46:08.052Z,102063.28
2018-11-14T07:48:36.427Z,102070.73
2018-11-14T07:51:04.647Z,102071.23
2018-11-14T07:53:33.178Z,102064.26
2018-11-14T07:56:01.318Z,102073.89
2018-11-14T07:58:29.430Z,102066.86
2018-11-14T08:00:57.583Z,102069.12
2018-11-14T08:03:27.079Z,102063.89
2018-11-14T08:05:55.592Z,102068.12
2018-11-14T08:08:23.810Z,102067.30
2018-11-14T08:10:51.929Z,102072.98
2018-11-14T08:13:23.161Z,102071.55
2018-11-14T08:15:52.993Z,102067.27
2018-11-14T08:18:21.812Z,102054.56
2018-11-14T08:20:50.113Z,102055.27
2018-11-14T08:23:24.861Z,102057.44
2018-11-14T08:25:52.963Z,102063.92
2018-11-14T08:28:21.071Z,102062.22
2018-11-14T08:30:49.256Z,102072.28
2018-11-14T08:33:17.419Z,102067.28
2018-11-14T08:35:45.556Z,102069.69
2018-11-14T08:38:13.902Z,102068.46
2018-11-14T08:40:42.000Z,102062.05
2018-11-14T08:43:10.310Z,102061.77
2018-11-14T08:45:38.473Z,102058.78
2018-11-14T08:48:07.088Z,102066.71
2018-11-14T08:50:35.159Z,102078.06
2018-11-14T08:53:03.412Z,102079.34
2018-11-14T08:55:31.538Z,102070.89
2018-11-14T08:57:59.675Z,102073.36
2018-11-14T09:00:28.409Z,102070.05
2018-11-14T09:02:56.532Z,102075.53
2018-11-14T09:05:24.612Z,102074.13
2018-11-14T09:07:52.793Z,102071.83
2018-11-14T09:10:24.699Z,102068.97
2018-11-14T09:12:52.853Z,102068.42
2018-11-14T09:15:22.106Z,102073.97
2018-11-14T09:17:50.366Z,102074.42
2018-11-14T09:20:20.708Z,102074.84
2018-11-14T09:22:48.859Z,102077.04
2018-11-14T09:25:22.512Z,102085.48
2018-11-14T09:27:50.679Z,102085.78
2018-11-14T09:30:19.940Z,102082.09
2018-11-14T09:32:49.168Z,102080.83
2018-11-14T09:35:18.436Z,102084.94
2018-11-14T09:37:46.676Z,102089.86
2018-11-14T09:40:16.355Z,102093.88
2018-11-14T09:42:44.467Z,102087.81
2018-11-14T09:45:14.903Z,102088.56
2018-11-14T09:47:43.047Z,102087.80
2018-11-14T09:50:15.443Z,102089.02
2018-11-14T09:52:44.629Z,102080.99
2018-11-14T09:55:13.021Z,102079.78
2018-11-14T09:57:41.834Z,102072.39
2018-11-14T10:00:11.768Z,102070.55
2018-11-14T10:02:40.298Z,102068.81
2018-11-14T10:05:10.641Z,102070.94
2018-11-14T10:07:39.438Z,102069.01
2018-11-14T10:10:08.708Z,102071.93
2018-11-14T10:12:37.689Z,102071.94
2018-11-14T10:15:07.757Z,102062.39
2018-11-14T10:17:36.291Z,102059.08
2018-11-14T10:20:04.850Z,102052.62
2018-11-14T10:22:33.035Z,102048.39
2018-11-14T10:25:02.144Z,102046.59
2018-11-14T10:27:30.228Z,102048.54
2018-11-14T10:29:58.447Z,102045.34
2018-11-14T10:32:26.583Z,102048.95
2018-11-14T10:34:54.744Z,102041.03
2018-11-14T10:37:22.859Z,102038.52
2018-11-14T10:39:51.032Z,102038.52
2018-11-14T10:42:19.128Z,102030.72
2018-11-14T10:44:47.219Z,102018.11
2018-11-14T10:47:15.309Z,102012.27
2018-11-14T10:49:44.591Z,102007.34
2018-11-14T10:52:12.685Z,102011.80
2018-11-14T10:54:40.786Z,102003.58
2018-11-14T10:57:08.900Z,102010.00
2018-11-14T10:59:37.140Z,102003.63
2018-11-14T11:02:11.060Z,102002.03
2018-11-14T11:04:44.423Z,102008.12
2018-11-14T11:07:17.740Z,102006.69
2018-11-14T11:12:44.318Z,102014.64
2018-11-14T11:15:18.356Z,102016.50
2018-11-14T11:17:52.776Z,102015.34
2018-11-14T11:20:20.888Z,102009.45
2018-11-14T11:22:48.978Z,102011.05
2018-11-14T11:25:17.291Z,102012.61
2018-11-14T11:27:45.387Z,102012.49
2018-11-14T11:30:13.496Z,102008.71
2018-11-14T11:32:41.643Z,102001.02
2018-11-14T11:35:09.711Z,101997.88
2018-11-14T11:37:37.805Z,101995.72
2018-11-14T11:40:06.688Z,101997.06
2018-11-14T11:42:34.780Z,101991.28
2018-11-14T11:45:02.880Z,101989.55
2018-11-14T11:47:31.052Z,101988.50
2018-11-14T11:49:59.220Z,101978.13
2018-11-14T11:52:28.112Z,101974.22
2018-11-14T11:54:56.247Z,101966.51
2018-11-14T11:57:24.408Z,101968.13
2018-11-14T11:59:52.696Z,101967.41
2018-11-14T12:02:20.839Z,101961.91
2018-11-14T12:04:48.901Z,101965.84
2018-11-14T12:07:17.023Z,101967.55
2018-11-14T12:09:45.240Z,101962.29
2018-11-14T12:12:13.339Z,101963.70
2018-11-14T12:14:41.428Z,101957.83
2018-11-14T12:17:09.575Z,101959.19
2018-11-14T12:19:37.920Z,101956.81
2018-11-14T12:22:06.047Z,101950.95
2018-11-14T12:24:34.129Z,101946.17
2018-11-14T12:27:02.234Z,101949.41
2018-11-14T12:29:31.187Z,101942.03
2018-11-14T12:31:59.295Z,101942.92
2018-11-14T12:34:27.876Z,101947.89
2018-11-14T12:36:56.015Z,101943.81
2018-11-14T12:39:24.137Z,101942.52
2018-11-14T12:41:52.223Z,101939.37
2018-11-14T12:44:20.359Z,101935.84
2018-11-14T12:46:48.490Z,101933.52
2018-11-14T12:49:16.640Z,101937.38
2018-11-14T12:51:44.788Z,101936.48
2018-11-14T12:54:12.919Z,101935.05
2018-11-14T12:56:41.039Z,101932.38
2018-11-14T12:59:09.160Z,101927.45
2018-11-14T13:01:37.296Z,101926.06
2018-11-14T13:04:05.560Z,101920.29
2018-11-14T13:06:33.665Z,101918.16
2018-11-14T13:09:01.796Z,101916.38
2018-11-14T13:11:29.921Z,101910.39
2018-11-14T13:13:58.032Z,101911.63
2018-11-14T13:16:26.160Z,101904.06
2018-11-14T13:18:54.936Z,101901.73
2018-11-14T13:21:23.176Z,101896.11
2018-11-14T13:23:51.391Z,101899.95
2018-11-14T13:29:00.443Z,101903.67
2018-11-14T13:31:28.469Z,101898.04
2018-11-14T13:33:56.567Z,101898.41
2018-11-14T13:36:24.955Z,101893.23
2018-11-14T13:38:53.042Z,101894.45
2018-11-14T13:41:21.133Z,101896.64
2018-11-14T13:43:50.027Z,101890.49
2018-11-14T13:46:18.092Z,101897.53
2018-11-14T13:48:46.458Z,101891.02
2018-11-14T13:51:14.720Z,101879.08
2018-11-14T13:53:42.678Z,101870.91
2018-11-14T13:56:10.736Z,101869.49
2018-11-14T13:58:38.840Z,101867.84
2018-11-14T14:01:07.014Z,101873.30
2018-11-14T14:03:35.131Z,101866.95
2018-11-14T14:06:03.235Z,101878.52
2018-11-14T14:08:31.369Z,101874.06
2018-11-14T14:10:59.431Z,101872.77
2018-11-14T14:13:27.532Z,101870.50
2018-11-14T14:15:55.948Z,101860.22
2018-11-14T14:18:24.052Z,101850.63
2018-11-14T14:20:52.375Z,101847.88
2018-11-14T14:23:20.486Z,101848.31
2018-11-14T14:25:48.576Z,101846.94
2018-11-14T14:28:16.691Z,101847.33
2018-11-14T14:30:45.990Z,101852.94
2018-11-14T14:33:14.037Z,101843.52
2018-11-14T14:35:42.134Z,101846.72
2018-11-14T14:38:10.295Z,101849.75
2018-11-14T14:40:38.394Z,101852.75
2018-11-14T14:43:06.489Z,101853.88
2018-11-14T14:45:34.612Z,101856.88
2018-11-14T14:48:02.815Z,101858.94
2018-11-14T14:50:30.956Z,101858.77
2018-11-14T14:52:59.130Z,101855.61
2018-11-14T14:55:27.255Z,101858.74
2018-11-14T14:57:55.356Z,101862.52
2018-11-14T15:00:24.768Z,101860.59
2018-11-14T15:02:52.859Z,101859.75
2018-11-14T15:05:20.960Z,101863.23
2018-11-14T15:07:49.048Z,101863.00
2018-11-14T15:10:18.322Z,101868.15
2018-11-14T15:12:46.672Z,101871.80
2018-11-14T15:15:15.239Z,101877.30
2018-11-14T15:17:44.020Z,101885.11
2018-11-14T15:20:14.644Z,101872.32
2018-11-14T15:22:42.947Z,101875.64
2018-11-14T15:25:12.655Z,101890.94
2018-11-14T15:27:41.636Z,101890.13
2018-11-14T15:30:13.875Z,101882.59
2018-11-14T15:32:42.203Z,101882.56
2018-11-14T15:35:11.589Z,101882.84
2018-11-14T15:37:39.792Z,101885.11
2018-11-14T15:40:10.044Z,101886.05
2018-11-14T15:42:38.678Z,101881.75
2018-11-14T15:45:09.845Z,101885.31
2018-11-14T15:47:38.556Z,101885.59
2018-11-14T15:50:09.104Z,101892.72
2018-11-14T15:52:37.216Z,101883.58
2018-11-14T15:55:06.507Z,101884.63
2018-11-14T15:57:34.911Z,101880.89
2018-11-14T16:00:03.009Z,101877.56
2018-11-14T16:02:31.132Z,101881.53
2018-11-14T16:04:59.284Z,101883.22
2018-11-14T16:07:27.406Z,101880.34
2018-11-14T16:09:55.495Z,101879.27
2018-11-14T16:12:23.635Z,101888.98
2018-11-14T16:14:51.693Z,101887.61
2018-11-14T16:17:19.780Z,101890.92
2018-11-14T16:19:47.876Z,101896.90
2018-11-14T16:22:15.979Z,101891.84
2018-11-14T16:24:44.128Z,101898.56
2018-11-14T16:27:12.416Z,101899.31
2018-11-14T16:29:40.615Z,101895.16
2018-11-14T16:32:08.711Z,101889.64
2018-11-14T16:34:36.804Z,101895.31
2018-11-14T16:37:04.924Z,101892.75
2018-11-14T16:39:33.004Z,101896.38
2018-11-14T16:42:01.119Z,101895.84
2018-11-14T16:44:29.289Z,101895.64
2018-11-14T16:46:57.377Z,101894.45
2018-11-14T16:49:25.462Z,101894.50
2018-11-14T16:51:53.630Z,101890.83
2018-11-14T16:54:21.772Z,101887.41
2018-11-14T16:56:49.855Z,101885.44
2018-11-14T16:59:17.986Z,101886.50
2018-11-14T17:01:46.111Z,101887.62
2018-11-14T17:04:14.211Z,101890.07
2018-11-14T17:06:42.323Z,101889.71
2018-11-14T17:09:12.096Z,101891.05
2018-11-14T17:11:40.264Z,101892.31
2018-11-14T17:14:08.740Z,101882.52
2018-11-14T17:16:37.052Z,101872.90
2018-11-14T17:19:05.791Z,101877.66
2018-11-14T17:21:34.527Z,101869.10
2018-11-14T17:24:02.892Z,101873.66
2018-11-14T17:26:31.244Z,101872.53
2018-11-14T17:28:59.336Z,101874.72
2018-11-14T17:31:27.471Z,101868.41
2018-11-14T17:33:55.591Z,101874.78
2018-11-14T17:36:23.674Z,101869.96
2018-11-14T17:38:51.759Z,101866.55
2018-11-14T17:41:19.881Z,101868.72
2018-11-14T17:43:47.978Z,101873.38
2018-11-14T17:46:16.353Z,101872.72
2018-11-14T17:48:44.460Z,101875.96
2018-11-14T17:51:12.604Z,101869.84
2018-11-14T17:53:40.712Z,101871.78
2018-11-14T17:56:08.829Z,101874.29
2018-11-14T17:58:37.014Z,101874.08
2018-11-14T18:01:05.348Z,101872.53
2018-11-14T18:03:33.434Z,101865.23
2018-11-14T18:06:01.518Z,101865.81
2018-11-14T18:08:29.622Z,101869.33
2018-11-14T18:10:57.749Z,101871.30
2018-11-14T18:13:25.890Z,101875.84
2018-11-14T18:15:54.023Z,101874.14
2018-11-14T18:18:22.225Z,101872.74
2018-11-14T18:20:50.371Z,101872.16
2018-11-14T18:23:18.480Z,101873.66
2018-11-14T18:25:46.599Z,101867.25
2018-11-14T18:28:14.735Z,101874.39
2018-11-14T18:30:42.923Z,101866.14
2018-11-14T18:33:10.968Z,101870.34
2018-11-14T18:35:39.143Z,101868.80
2018-11-14T18:38:07.293Z,101871.31
2018-11-14T18:40:35.817Z,101867.09
2018-11-14T18:43:04.432Z,101868.32
2018-11-14T18:45:33.903Z,101870.78
2018-11-14T18:48:02.495Z,101869.83
2018-11-14T18:50:30.714Z,101860.37
2018-11-14T18:52:58.796Z,101854.92
2018-11-14T18:55:31.144Z,101860.96
2018-11-14T18:57:59.939Z,101847.11
2018-11-14T19:00:29.220Z,101852.00
2018-11-14T19:02:57.561Z,101849.50
2018-11-14T19:05:25.640Z,101846.23
2018-11-14T19:07:53.739Z,101846.94
2018-11-14T19:10:23.134Z,101845.93
2018-11-14T19:12:51.840Z,101843.83
2018-11-14T19:15:35.410Z,101843.89
2018-11-14T19:18:04.140Z,101835.52
2018-11-14T19:20:34.188Z,101844.47
2018-11-14T19:23:02.972Z,101846.83
2018-11-14T19:25:33.420Z,101851.68
2018-11-14T19:28:01.587Z,101848.48
2018-11-14T19:30:32.516Z,101844.16
2018-11-14T19:33:15.921Z,101847.24
2018-11-14T19:35:47.994Z,101854.30
2018-11-14T19:38:26.114Z,101849.55
2018-11-14T19:40:56.961Z,101847.63
2018-11-14T19:43:28.225Z,101845.34
2018-11-14T19:46:07.385Z,101841.88
2018-11-14T19:48:39.799Z,101844.27
2018-11-14T19:51:21.211Z,101837.77
2018-11-14T19:53:57.027Z,101840.86
2018-11-14T19:56:33.308Z,101840.52
2018-11-14T19:59:06.218Z,101840.24
2018-11-14T20:01:35.826Z,101842.27
2018-11-14T20:04:05.983Z,101842.22
2018-11-14T20:06:45.961Z,101844.91
2018-11-14T20:09:15.291Z,101837.20
2018-11-14T20:11:45.782Z,101838.16
2018-11-14T20:14:23.321Z,101834.98
2018-11-14T20:16:57.878Z,101839.83
2018-11-14T20:19:28.383Z,101839.90
2018-11-14T20:22:05.403Z,101834.77
2018-11-14T20:24:43.277Z,101843.37
2018-11-14T20:27:20.804Z,101838.14
2018-11-14T20:29:56.821Z,101832.86
2018-11-14T20:32:34.980Z,101834.83
2018-11-14T20:35:10.174Z,101830.03
2018-11-14T20:37:45.506Z,101828.33
2018-11-14T20:40:20.166Z,101825.66
2018-11-14T20:42:55.472Z,101830.46
2018-11-14T20:45:29.677Z,101834.83
2018-11-14T20:48:01.744Z,101838.62
2018-11-14T20:50:36.371Z,101833.06
2018-11-14T20:53:06.995Z,101836.13
2018-11-14T20:55:39.943Z,101832.80
2018-11-14T20:58:10.444Z,101837.50
2018-11-14T21:00:42.623Z,101834.93
2018-11-14T21:03:14.249Z,101840.00
2018-11-14T21:05:47.929Z,101840.75
2018-11-14T21:08:19.534Z,101840.27
2018-11-14T21:10:53.993Z,101840.44
2018-11-14T21:13:40.219Z,101844.91
2018-11-14T21:16:21.040Z,101837.66
2018-11-14T21:18:53.557Z,101846.94
2018-11-14T21:21:23.309Z,101845.02
2018-11-14T21:23:51.458Z,101846.67
2018-11-14T21:26:23.225Z,101847.91
2018-11-14T21:28:54.257Z,101853.06
2018-11-14T21:31:31.490Z,101847.73
2018-11-14T21:34:02.052Z,101848.44
2018-11-14T21:36:35.613Z,101843.95
2018-11-14T21:39:10.573Z,101845.55
2018-11-14T21:41:40.242Z,101846.94
2018-11-14T21:44:12.317Z,101845.27
2018-11-14T21:46:46.483Z,101845.16
2018-11-14T21:49:21.816Z,101845.93
2018-11-14T21:51:58.717Z,101847.27
2018-11-14T21:54:29.830Z,101844.86
2018-11-14T21:57:05.034Z,101841.23
2018-11-14T21:59:44.513Z,101837.92
2018-11-14T22:02:17.588Z,101837.17
2018-11-14T22:04:48.208Z,101841.83
2018-11-14T22:07:26.547Z,101841.06
2018-11-14T22:10:01.638Z,101839.03
2018-11-14T22:15:27.192Z,101851.36
2018-11-14T22:17:57.739Z,101852.80
2018-11-14T22:20:30.874Z,101856.11
2018-11-14T22:23:01.323Z,101853.27
2018-11-14T22:25:36.232Z,101853.55
2018-11-14T22:28:10.761Z,101856.70
2018-11-14T22:30:45.140Z,101854.45
2018-11-14T22:33:21.330Z,101857.12
2018-11-14T22:35:53.575Z,101856.30
2018-11-14T22:38:31.503Z,101860.61
2018-11-14T22:40:59.631Z,101856.97
2018-11-14T22:43:27.706Z,101856.70
2018-11-14T22:45:55.808Z,101850.86
2018-11-14T22:48:24.230Z,101849.52
2018-11-14T22:50:52.335Z,101867.23
2018-11-14T22:53:21.247Z,101861.39
2018-11-14T22:55:49.951Z,101865.23
2018-11-14T22:58:18.050Z,101866.48
2018-11-14T23:00:46.734Z,101865.03
2018-11-14T23:03:15.796Z,101866.36
2018-11-14T23:05:47.801Z,101864.70
2018-11-14T23:08:19.869Z,101860.64
2018-11-14T23:10:57.177Z,101864.19
2018-11-14T23:13:30.217Z,101863.14
2018-11-14T23:16:01.075Z,101859.48
2018-11-14T23:18:30.711Z,101859.78
2018-11-14T23:34:56.195Z,101858.56
2018-11-14T23:37:25.510Z,101863.41
2018-11-14T23:39:54.686Z,101860.06
2018-11-14T23:42:24.286Z,101858.60
2018-11-14T23:44:58.889Z,101860.61
2018-11-14T23:47:32.004Z,101865.05
2018-11-14T23:50:00.789Z,101861.45
2018-11-14T23:52:37.026Z,101866.64
2018-11-14T23:55:09.846Z,101861.68
2018-11-14T23:57:38.427Z,101860.34
